sensor_id;sensor_type;location;lat;lon;timestamp;P1;durP1;ratioP1;P2;durP2;ratioP2
6947;SDS011;3513;47.664;9.162;2022-11-20T00:01:09;7.60;;;5.27;;
6947;SDS011;3513;47.664;9.162;2022-11-20T00:03:43;34.20;;;13.93;;
6947;SDS011;3513;47.664;9.162;2022-11-20T00:06:10;32.47;;;13.40;;
6947;SDS011;3513;47.664;9.162;2022-11-20T00:08:38;9.50;;;7.47;;
6947;SDS011;3513;47.664;9.162;2022-11-20T00:13:30;8.77;;;6.03;;
6947;SDS011;3513;47.664;9.162;2022-11-20T00:15:56;9.23;;;7.67;;
6947;SDS011;3513;47.664;9.162;2022-11-20T00:18:23;12.67;;;6.50;;
6947;SDS011;3513;47.664;9.162;2022-11-20T00:20:49;9.63;;;5.93;;
6947;SDS011;3513;47.664;9.162;2022-11-20T00:23:15;11.23;;;6.57;;
6947;SDS011;3513;47.664;9.162;2022-11-20T00:25:40;13.97;;;6.20;;
6947;SDS011;3513;47.664;9.162;2022-11-20T00:28:06;11.50;;;6.20;;
6947;SDS011;3513;47.664;9.162;2022-11-20T00:30:31;9.07;;;5.80;;
6947;SDS011;3513;47.664;9.162;2022-11-20T00:32:57;11.20;;;5.83;;
6947;SDS011;3513;47.664;9.162;2022-11-20T00:35:23;19.97;;;6.23;;
6947;SDS011;3513;47.664;9.162;2022-11-20T00:37:48;13.00;;;5.83;;
6947;SDS011;3513;47.664;9.162;2022-11-20T00:40:14;13.63;;;5.90;;
6947;SDS011;3513;47.664;9.162;2022-11-20T00:42:40;8.57;;;6.10;;
6947;SDS011;3513;47.664;9.162;2022-11-20T00:45:05;18.77;;;6.50;;
6947;SDS011;3513;47.664;9.162;2022-11-20T00:47:32;10.73;;;6.60;;
6947;SDS011;3513;47.664;9.162;2022-11-20T00:49:57;7.73;;;5.47;;
6947;SDS011;3513;47.664;9.162;2022-11-20T00:52:23;12.60;;;6.30;;
6947;SDS011;3513;47.664;9.162;2022-11-20T00:54:48;11.10;;;5.40;;
6947;SDS011;3513;47.664;9.162;2022-11-20T00:57:14;12.40;;;5.60;;
6947;SDS011;3513;47.664;9.162;2022-11-20T00:59:40;11.83;;;6.10;;
6947;SDS011;3513;47.664;9.162;2022-11-20T01:02:05;12.50;;;6.00;;
6947;SDS011;3513;47.664;9.162;2022-11-20T01:04:31;8.63;;;5.10;;
6947;SDS011;3513;47.664;9.162;2022-11-20T01:06:57;6.80;;;5.10;;
6947;SDS011;3513;47.664;9.162;2022-11-20T01:09:22;9.00;;;5.80;;
6947;SDS011;3513;47.664;9.162;2022-11-20T01:11:48;15.47;;;6.27;;
6947;SDS011;3513;47.664;9.162;2022-11-20T01:14:15;6.97;;;5.13;;
6947;SDS011;3513;47.664;9.162;2022-11-20T01:16:44;8.57;;;5.70;;
6947;SDS011;3513;47.664;9.162;2022-11-20T01:19:15;30.03;;;6.67;;
6947;SDS011;3513;47.664;9.162;2022-11-20T01:21:46;16.93;;;6.13;;
6947;SDS011;3513;47.664;9.162;2022-11-20T01:24:15;8.50;;;5.70;;
6947;SDS011;3513;47.664;9.162;2022-11-20T01:26:42;9.63;;;5.60;;
6947;SDS011;3513;47.664;9.162;2022-11-20T01:29:16;14.60;;;5.97;;
6947;SDS011;3513;47.664;9.162;2022-11-20T01:31:47;7.10;;;5.60;;
6947;SDS011;3513;47.664;9.162;2022-11-20T01:34:13;9.27;;;6.27;;
6947;SDS011;3513;47.664;9.162;2022-11-20T01:36:42;8.70;;;5.03;;
6947;SDS011;3513;47.664;9.162;2022-11-20T01:39:19;8.17;;;5.40;;
6947;SDS011;3513;47.664;9.162;2022-11-20T01:41:46;8.60;;;5.70;;
6947;SDS011;3513;47.664;9.162;2022-11-20T01:47:37;8.40;;;5.53;;
6947;SDS011;3513;47.664;9.162;2022-11-20T01:50:11;8.63;;;5.07;;
6947;SDS011;3513;47.664;9.162;2022-11-20T01:52:46;10.80;;;7.43;;
6947;SDS011;3513;47.664;9.162;2022-11-20T01:55:22;11.30;;;5.27;;
6947;SDS011;3513;47.664;9.162;2022-11-20T01:57:51;7.30;;;5.60;;
6947;SDS011;3513;47.664;9.162;2022-11-20T02:00:17;13.17;;;5.10;;
6947;SDS011;3513;47.664;9.162;2022-11-20T02:02:46;12.20;;;4.53;;
6947;SDS011;3513;47.664;9.162;2022-11-20T02:05:30;11.10;;;5.50;;
6947;SDS011;3513;47.664;9.162;2022-11-20T02:08:03;8.93;;;5.07;;
6947;SDS011;3513;47.664;9.162;2022-11-20T02:10:30;13.13;;;4.90;;
6947;SDS011;3513;47.664;9.162;2022-11-20T02:12:57;5.53;;;4.70;;
6947;SDS011;3513;47.664;9.162;2022-11-20T02:15:42;10.17;;;4.80;;
6947;SDS011;3513;47.664;9.162;2022-11-20T02:18:09;15.33;;;4.63;;
6947;SDS011;3513;47.664;9.162;2022-11-20T02:20:36;14.13;;;5.07;;
6947;SDS011;3513;47.664;9.162;2022-11-20T02:25:29;6.30;;;4.23;;
6947;SDS011;3513;47.664;9.162;2022-11-20T02:27:57;7.87;;;4.67;;
6947;SDS011;3513;47.664;9.162;2022-11-20T02:30:22;4.80;;;4.20;;
6947;SDS011;3513;47.664;9.162;2022-11-20T02:32:49;12.73;;;4.70;;
6947;SDS011;3513;47.664;9.162;2022-11-20T02:37:43;8.60;;;3.80;;
6947;SDS011;3513;47.664;9.162;2022-11-20T02:40:09;6.73;;;4.67;;
6947;SDS011;3513;47.664;9.162;2022-11-20T02:42:36;11.27;;;4.60;;
6947;SDS011;3513;47.664;9.162;2022-11-20T02:45:02;8.50;;;4.03;;
6947;SDS011;3513;47.664;9.162;2022-11-20T02:47:31;8.17;;;4.83;;
6947;SDS011;3513;47.664;9.162;2022-11-20T02:49:57;4.97;;;3.60;;
6947;SDS011;3513;47.664;9.162;2022-11-20T02:52:24;5.10;;;3.80;;
6947;SDS011;3513;47.664;9.162;2022-11-20T02:54:50;4.23;;;3.40;;
6947;SDS011;3513;47.664;9.162;2022-11-20T02:57:16;5.80;;;3.47;;
6947;SDS011;3513;47.664;9.162;2022-11-20T02:59:41;7.43;;;3.97;;
6947;SDS011;3513;47.664;9.162;2022-11-20T03:02:07;7.80;;;3.90;;
6947;SDS011;3513;47.664;9.162;2022-11-20T03:04:33;3.60;;;3.30;;
6947;SDS011;3513;47.664;9.162;2022-11-20T03:06:58;8.60;;;3.17;;
6947;SDS011;3513;47.664;9.162;2022-11-20T03:09:24;6.60;;;3.50;;
6947;SDS011;3513;47.664;9.162;2022-11-20T03:11:49;6.23;;;3.70;;
6947;SDS011;3513;47.664;9.162;2022-11-20T03:14:15;6.83;;;4.07;;
6947;SDS011;3513;47.664;9.162;2022-11-20T03:16:41;4.77;;;3.50;;
6947;SDS011;3513;47.664;9.162;2022-11-20T03:19:06;6.47;;;3.77;;
6947;SDS011;3513;47.664;9.162;2022-11-20T03:21:32;5.70;;;4.03;;
6947;SDS011;3513;47.664;9.162;2022-11-20T03:23:59;8.20;;;3.23;;
6947;SDS011;3513;47.664;9.162;2022-11-20T03:26:25;6.33;;;4.37;;
6947;SDS011;3513;47.664;9.162;2022-11-20T03:28:52;5.90;;;4.33;;
6947;SDS011;3513;47.664;9.162;2022-11-20T03:31:21;15.97;;;8.13;;
6947;SDS011;3513;47.664;9.162;2022-11-20T03:33:49;11.63;;;7.10;;
6947;SDS011;3513;47.664;9.162;2022-11-20T03:36:16;10.93;;;6.67;;
6947;SDS011;3513;47.664;9.162;2022-11-20T03:38:43;12.43;;;8.03;;
6947;SDS011;3513;47.664;9.162;2022-11-20T03:41:10;7.70;;;4.40;;
6947;SDS011;3513;47.664;9.162;2022-11-20T03:43:37;15.17;;;4.63;;
6947;SDS011;3513;47.664;9.162;2022-11-20T03:46:03;8.00;;;4.80;;
6947;SDS011;3513;47.664;9.162;2022-11-20T03:48:30;8.23;;;4.10;;
6947;SDS011;3513;47.664;9.162;2022-11-20T03:51:29;6.10;;;4.60;;
6947;SDS011;3513;47.664;9.162;2022-11-20T03:53:50;4.97;;;4.07;;
6947;SDS011;3513;47.664;9.162;2022-11-20T03:56:17;11.60;;;4.47;;
6947;SDS011;3513;47.664;9.162;2022-11-20T03:58:44;6.40;;;4.00;;
6947;SDS011;3513;47.664;9.162;2022-11-20T04:01:12;5.77;;;4.70;;
6947;SDS011;3513;47.664;9.162;2022-11-20T04:03:40;6.60;;;4.07;;
6947;SDS011;3513;47.664;9.162;2022-11-20T04:08:37;6.23;;;5.27;;
6947;SDS011;3513;47.664;9.162;2022-11-20T04:13:40;9.40;;;6.23;;
6947;SDS011;3513;47.664;9.162;2022-11-20T04:16:07;6.67;;;4.37;;
6947;SDS011;3513;47.664;9.162;2022-11-20T04:18:33;7.90;;;5.00;;
6947;SDS011;3513;47.664;9.162;2022-11-20T04:20:59;9.73;;;4.20;;
6947;SDS011;3513;47.664;9.162;2022-11-20T04:23:25;9.03;;;4.97;;
6947;SDS011;3513;47.664;9.162;2022-11-20T04:25:51;6.53;;;3.70;;
6947;SDS011;3513;47.664;9.162;2022-11-20T04:28:17;3.53;;;3.03;;
6947;SDS011;3513;47.664;9.162;2022-11-20T04:30:42;4.30;;;3.70;;
6947;SDS011;3513;47.664;9.162;2022-11-20T04:33:08;4.23;;;3.83;;
6947;SDS011;3513;47.664;9.162;2022-11-20T04:35:34;9.73;;;4.87;;
6947;SDS011;3513;47.664;9.162;2022-11-20T04:38:00;6.23;;;4.57;;
6947;SDS011;3513;47.664;9.162;2022-11-20T04:40:27;5.80;;;4.03;;
6947;SDS011;3513;47.664;9.162;2022-11-20T04:42:53;5.27;;;4.20;;
6947;SDS011;3513;47.664;9.162;2022-11-20T04:45:19;7.50;;;5.20;;
6947;SDS011;3513;47.664;9.162;2022-11-20T04:47:45;5.87;;;3.60;;
6947;SDS011;3513;47.664;9.162;2022-11-20T04:50:11;12.23;;;4.97;;
6947;SDS011;3513;47.664;9.162;2022-11-20T04:52:37;7.27;;;4.07;;
6947;SDS011;3513;47.664;9.162;2022-11-20T04:55:02;4.60;;;3.30;;
6947;SDS011;3513;47.664;9.162;2022-11-20T04:57:28;9.57;;;4.47;;
6947;SDS011;3513;47.664;9.162;2022-11-20T04:59:54;6.43;;;3.40;;
6947;SDS011;3513;47.664;9.162;2022-11-20T05:02:20;13.63;;;4.10;;
6947;SDS011;3513;47.664;9.162;2022-11-20T05:04:45;18.60;;;5.40;;
6947;SDS011;3513;47.664;9.162;2022-11-20T05:07:11;7.53;;;4.57;;
6947;SDS011;3513;47.664;9.162;2022-11-20T05:09:37;11.97;;;3.47;;
6947;SDS011;3513;47.664;9.162;2022-11-20T05:12:02;3.90;;;3.40;;
6947;SDS011;3513;47.664;9.162;2022-11-20T05:14:28;8.00;;;3.77;;
6947;SDS011;3513;47.664;9.162;2022-11-20T05:16:54;9.43;;;4.07;;
6947;SDS011;3513;47.664;9.162;2022-11-20T05:19:19;6.73;;;3.63;;
6947;SDS011;3513;47.664;9.162;2022-11-20T05:21:45;7.30;;;3.70;;
6947;SDS011;3513;47.664;9.162;2022-11-20T05:24:10;7.03;;;4.37;;
6947;SDS011;3513;47.664;9.162;2022-11-20T05:26:36;8.90;;;4.33;;
6947;SDS011;3513;47.664;9.162;2022-11-20T05:29:02;5.50;;;2.77;;
6947;SDS011;3513;47.664;9.162;2022-11-20T05:31:27;5.43;;;4.20;;
6947;SDS011;3513;47.664;9.162;2022-11-20T05:33:53;5.57;;;3.20;;
6947;SDS011;3513;47.664;9.162;2022-11-20T05:36:20;7.43;;;3.73;;
6947;SDS011;3513;47.664;9.162;2022-11-20T05:38:46;4.73;;;3.50;;
6947;SDS011;3513;47.664;9.162;2022-11-20T05:41:13;6.40;;;3.13;;
6947;SDS011;3513;47.664;9.162;2022-11-20T05:43:41;8.17;;;3.87;;
6947;SDS011;3513;47.664;9.162;2022-11-20T05:46:09;7.53;;;3.10;;
6947;SDS011;3513;47.664;9.162;2022-11-20T05:48:36;6.17;;;2.90;;
6947;SDS011;3513;47.664;9.162;2022-11-20T05:51:02;4.20;;;2.47;;
6947;SDS011;3513;47.664;9.162;2022-11-20T05:53:30;3.90;;;2.90;;
6947;SDS011;3513;47.664;9.162;2022-11-20T05:56:01;4.63;;;3.13;;
6947;SDS011;3513;47.664;9.162;2022-11-20T05:58:29;5.73;;;3.43;;
6947;SDS011;3513;47.664;9.162;2022-11-20T06:01:02;3.67;;;2.60;;
6947;SDS011;3513;47.664;9.162;2022-11-20T06:03:48;4.57;;;3.10;;
6947;SDS011;3513;47.664;9.162;2022-11-20T06:06:15;4.93;;;2.83;;
6947;SDS011;3513;47.664;9.162;2022-11-20T06:08:42;6.60;;;2.90;;
6947;SDS011;3513;47.664;9.162;2022-11-20T06:11:09;4.30;;;2.80;;
6947;SDS011;3513;47.664;9.162;2022-11-20T06:13:36;5.30;;;2.90;;
6947;SDS011;3513;47.664;9.162;2022-11-20T06:16:02;5.77;;;3.40;;
6947;SDS011;3513;47.664;9.162;2022-11-20T06:18:28;3.13;;;2.83;;
6947;SDS011;3513;47.664;9.162;2022-11-20T06:21:01;2.87;;;2.67;;
6947;SDS011;3513;47.664;9.162;2022-11-20T06:23:35;6.10;;;2.60;;
6947;SDS011;3513;47.664;9.162;2022-11-20T06:26:02;5.60;;;2.87;;
6947;SDS011;3513;47.664;9.162;2022-11-20T06:28:29;7.50;;;3.50;;
6947;SDS011;3513;47.664;9.162;2022-11-20T06:30:55;5.73;;;2.60;;
6947;SDS011;3513;47.664;9.162;2022-11-20T06:33:20;4.60;;;3.23;;
6947;SDS011;3513;47.664;9.162;2022-11-20T06:35:46;9.33;;;3.93;;
6947;SDS011;3513;47.664;9.162;2022-11-20T06:38:12;4.57;;;3.30;;
6947;SDS011;3513;47.664;9.162;2022-11-20T06:40:39;6.90;;;2.67;;
6947;SDS011;3513;47.664;9.162;2022-11-20T06:43:06;3.20;;;2.47;;
6947;SDS011;3513;47.664;9.162;2022-11-20T06:45:31;4.03;;;3.30;;
6947;SDS011;3513;47.664;9.162;2022-11-20T06:47:57;5.97;;;3.70;;
6947;SDS011;3513;47.664;9.162;2022-11-20T06:50:23;4.33;;;3.00;;
6947;SDS011;3513;47.664;9.162;2022-11-20T06:52:49;4.40;;;3.07;;
6947;SDS011;3513;47.664;9.162;2022-11-20T06:55:14;5.17;;;3.30;;
6947;SDS011;3513;47.664;9.162;2022-11-20T06:57:40;13.10;;;3.60;;
6947;SDS011;3513;47.664;9.162;2022-11-20T07:00:05;8.80;;;4.10;;
6947;SDS011;3513;47.664;9.162;2022-11-20T07:02:31;4.07;;;2.83;;
6947;SDS011;3513;47.664;9.162;2022-11-20T07:04:57;5.03;;;3.80;;
6947;SDS011;3513;47.664;9.162;2022-11-20T07:07:23;4.63;;;3.53;;
6947;SDS011;3513;47.664;9.162;2022-11-20T07:09:48;4.37;;;3.80;;
6947;SDS011;3513;47.664;9.162;2022-11-20T07:12:14;5.43;;;3.00;;
6947;SDS011;3513;47.664;9.162;2022-11-20T07:14:39;4.20;;;2.90;;
6947;SDS011;3513;47.664;9.162;2022-11-20T07:17:05;7.80;;;3.40;;
6947;SDS011;3513;47.664;9.162;2022-11-20T07:19:30;11.43;;;3.40;;
6947;SDS011;3513;47.664;9.162;2022-11-20T07:21:56;5.67;;;3.60;;
6947;SDS011;3513;47.664;9.162;2022-11-20T07:24:22;3.93;;;3.53;;
6947;SDS011;3513;47.664;9.162;2022-11-20T07:26:47;5.17;;;3.40;;
6947;SDS011;3513;47.664;9.162;2022-11-20T07:29:16;5.93;;;3.60;;
6947;SDS011;3513;47.664;9.162;2022-11-20T07:31:42;4.13;;;3.73;;
6947;SDS011;3513;47.664;9.162;2022-11-20T07:34:07;13.93;;;3.80;;
6947;SDS011;3513;47.664;9.162;2022-11-20T07:36:33;4.87;;;3.10;;
6947;SDS011;3513;47.664;9.162;2022-11-20T07:38:59;4.70;;;3.27;;
6947;SDS011;3513;47.664;9.162;2022-11-20T07:41:25;4.30;;;3.67;;
6947;SDS011;3513;47.664;9.162;2022-11-20T07:43:50;5.53;;;3.70;;
6947;SDS011;3513;47.664;9.162;2022-11-20T07:46:16;5.03;;;3.80;;
6947;SDS011;3513;47.664;9.162;2022-11-20T07:48:42;5.30;;;3.03;;
6947;SDS011;3513;47.664;9.162;2022-11-20T07:51:07;5.00;;;2.43;;
6947;SDS011;3513;47.664;9.162;2022-11-20T07:53:33;5.83;;;2.57;;
6947;SDS011;3513;47.664;9.162;2022-11-20T07:55:59;3.73;;;2.20;;
6947;SDS011;3513;47.664;9.162;2022-11-20T07:58:26;8.23;;;2.73;;
6947;SDS011;3513;47.664;9.162;2022-11-20T08:00:53;3.63;;;2.90;;
6947;SDS011;3513;47.664;9.162;2022-11-20T08:03:19;3.43;;;2.77;;
6947;SDS011;3513;47.664;9.162;2022-11-20T08:05:44;15.20;;;3.10;;
6947;SDS011;3513;47.664;9.162;2022-11-20T08:08:10;2.60;;;2.20;;
6947;SDS011;3513;47.664;9.162;2022-11-20T08:10:35;31.80;;;2.83;;
6947;SDS011;3513;47.664;9.162;2022-11-20T08:13:01;4.20;;;2.33;;
6947;SDS011;3513;47.664;9.162;2022-11-20T08:15:49;5.90;;;2.70;;
6947;SDS011;3513;47.664;9.162;2022-11-20T08:18:18;5.20;;;2.13;;
6947;SDS011;3513;47.664;9.162;2022-11-20T08:20:44;2.97;;;2.63;;
6947;SDS011;3513;47.664;9.162;2022-11-20T08:23:10;3.90;;;2.70;;
6947;SDS011;3513;47.664;9.162;2022-11-20T08:25:36;2.60;;;2.40;;
6947;SDS011;3513;47.664;9.162;2022-11-20T08:28:04;6.53;;;3.23;;
6947;SDS011;3513;47.664;9.162;2022-11-20T08:30:31;9.10;;;3.27;;
6947;SDS011;3513;47.664;9.162;2022-11-20T08:33:01;3.27;;;2.73;;
6947;SDS011;3513;47.664;9.162;2022-11-20T08:35:32;4.23;;;1.80;;
6947;SDS011;3513;47.664;9.162;2022-11-20T08:37:59;2.77;;;2.07;;
6947;SDS011;3513;47.664;9.162;2022-11-20T08:40:25;1.90;;;1.80;;
6947;SDS011;3513;47.664;9.162;2022-11-20T08:42:51;2.90;;;2.40;;
6947;SDS011;3513;47.664;9.162;2022-11-20T08:45:17;5.10;;;2.67;;
6947;SDS011;3513;47.664;9.162;2022-11-20T08:47:44;5.07;;;2.77;;
6947;SDS011;3513;47.664;9.162;2022-11-20T08:50:11;5.20;;;2.10;;
6947;SDS011;3513;47.664;9.162;2022-11-20T08:52:37;3.97;;;3.30;;
6947;SDS011;3513;47.664;9.162;2022-11-20T08:55:03;2.73;;;2.50;;
6947;SDS011;3513;47.664;9.162;2022-11-20T08:57:33;10.40;;;4.47;;
6947;SDS011;3513;47.664;9.162;2022-11-20T09:00:00;3.47;;;2.70;;
6947;SDS011;3513;47.664;9.162;2022-11-20T09:02:26;5.50;;;2.50;;
6947;SDS011;3513;47.664;9.162;2022-11-20T09:04:52;6.03;;;3.17;;
6947;SDS011;3513;47.664;9.162;2022-11-20T09:07:21;5.77;;;2.53;;
6947;SDS011;3513;47.664;9.162;2022-11-20T09:09:47;5.40;;;2.70;;
6947;SDS011;3513;47.664;9.162;2022-11-20T09:12:12;5.43;;;2.57;;
6947;SDS011;3513;47.664;9.162;2022-11-20T09:14:38;6.90;;;2.53;;
6947;SDS011;3513;47.664;9.162;2022-11-20T09:17:04;7.23;;;3.50;;
6947;SDS011;3513;47.664;9.162;2022-11-20T09:19:29;5.70;;;2.97;;
6947;SDS011;3513;47.664;9.162;2022-11-20T09:21:55;3.33;;;2.03;;
6947;SDS011;3513;47.664;9.162;2022-11-20T09:24:21;6.60;;;2.87;;
6947;SDS011;3513;47.664;9.162;2022-11-20T09:26:46;4.63;;;2.00;;
6947;SDS011;3513;47.664;9.162;2022-11-20T09:29:12;2.20;;;2.00;;
6947;SDS011;3513;47.664;9.162;2022-11-20T09:31:38;6.10;;;2.90;;
6947;SDS011;3513;47.664;9.162;2022-11-20T09:34:03;6.90;;;2.40;;
6947;SDS011;3513;47.664;9.162;2022-11-20T09:36:29;5.30;;;2.93;;
6947;SDS011;3513;47.664;9.162;2022-11-20T09:38:55;9.93;;;4.30;;
6947;SDS011;3513;47.664;9.162;2022-11-20T09:46:39;1.90;;;1.70;;
6947;SDS011;3513;47.664;9.162;2022-11-20T09:51:59;3.83;;;1.83;;
6947;SDS011;3513;47.664;9.162;2022-11-20T09:54:27;4.60;;;2.60;;
6947;SDS011;3513;47.664;9.162;2022-11-20T09:57:01;2.57;;;1.93;;
6947;SDS011;3513;47.664;9.162;2022-11-20T09:59:46;2.70;;;1.80;;
6947;SDS011;3513;47.664;9.162;2022-11-20T10:05:13;1.50;;;1.40;;
6947;SDS011;3513;47.664;9.162;2022-11-20T10:10:31;2.97;;;1.67;;
6947;SDS011;3513;47.664;9.162;2022-11-20T10:13:05;3.73;;;1.63;;
6947;SDS011;3513;47.664;9.162;2022-11-20T10:26:21;2.00;;;1.50;;
6947;SDS011;3513;47.664;9.162;2022-11-20T10:31:49;3.53;;;1.83;;
6947;SDS011;3513;47.664;9.162;2022-11-20T10:37:12;3.73;;;1.57;;
6947;SDS011;3513;47.664;9.162;2022-11-20T10:39:54;2.90;;;1.33;;
6947;SDS011;3513;47.664;9.162;2022-11-20T10:42:28;3.10;;;1.37;;
6947;SDS011;3513;47.664;9.162;2022-11-20T10:47:56;4.00;;;1.57;;
6947;SDS011;3513;47.664;9.162;2022-11-20T10:50:40;4.20;;;1.53;;
6947;SDS011;3513;47.664;9.162;2022-11-20T11:01:20;2.60;;;1.67;;
6947;SDS011;3513;47.664;9.162;2022-11-20T11:03:51;2.30;;;1.60;;
6947;SDS011;3513;47.664;9.162;2022-11-20T11:08:43;2.80;;;1.63;;
6947;SDS011;3513;47.664;9.162;2022-11-20T11:11:18;4.03;;;1.83;;
6947;SDS011;3513;47.664;9.162;2022-11-20T11:13:46;2.77;;;1.90;;
6947;SDS011;3513;47.664;9.162;2022-11-20T11:16:23;2.30;;;1.60;;
6947;SDS011;3513;47.664;9.162;2022-11-20T11:18:51;2.60;;;1.80;;
6947;SDS011;3513;47.664;9.162;2022-11-20T11:21:28;2.40;;;1.50;;
6947;SDS011;3513;47.664;9.162;2022-11-20T11:23:58;2.50;;;1.80;;
6947;SDS011;3513;47.664;9.162;2022-11-20T11:26:25;3.40;;;2.03;;
6947;SDS011;3513;47.664;9.162;2022-11-20T11:28:53;2.40;;;1.30;;
6947;SDS011;3513;47.664;9.162;2022-11-20T11:31:23;5.80;;;2.20;;
6947;SDS011;3513;47.664;9.162;2022-11-20T11:34:06;2.50;;;1.43;;
6947;SDS011;3513;47.664;9.162;2022-11-20T11:36:39;3.00;;;2.40;;
6947;SDS011;3513;47.664;9.162;2022-11-20T11:39:05;3.80;;;1.40;;
6947;SDS011;3513;47.664;9.162;2022-11-20T11:41:38;2.30;;;1.83;;
6947;SDS011;3513;47.664;9.162;2022-11-20T11:44:14;2.93;;;1.60;;
6947;SDS011;3513;47.664;9.162;2022-11-20T11:47:02;4.23;;;1.63;;
6947;SDS011;3513;47.664;9.162;2022-11-20T11:49:31;3.73;;;1.60;;
6947;SDS011;3513;47.664;9.162;2022-11-20T11:51:59;4.27;;;1.70;;
6947;SDS011;3513;47.664;9.162;2022-11-20T12:08:09;2.70;;;1.87;;
6947;SDS011;3513;47.664;9.162;2022-11-20T12:16:13;4.27;;;2.47;;
6947;SDS011;3513;47.664;9.162;2022-11-20T12:18:42;9.20;;;2.40;;
6947;SDS011;3513;47.664;9.162;2022-11-20T12:21:18;4.20;;;2.40;;
6947;SDS011;3513;47.664;9.162;2022-11-20T12:31:58;2.57;;;1.50;;
6947;SDS011;3513;47.664;9.162;2022-11-20T12:37:28;4.83;;;1.30;;
6947;SDS011;3513;47.664;9.162;2022-11-20T12:49:03;3.73;;;1.23;;
6947;SDS011;3513;47.664;9.162;2022-11-20T12:56:50;8.23;;;1.47;;
6947;SDS011;3513;47.664;9.162;2022-11-20T13:02:02;2.43;;;1.40;;
6947;SDS011;3513;47.664;9.162;2022-11-20T13:07:37;2.73;;;1.50;;
6947;SDS011;3513;47.664;9.162;2022-11-20T13:10:03;3.80;;;1.47;;
6947;SDS011;3513;47.664;9.162;2022-11-20T13:12:45;4.60;;;1.97;;
6947;SDS011;3513;47.664;9.162;2022-11-20T13:18:00;3.80;;;1.60;;
6947;SDS011;3513;47.664;9.162;2022-11-20T13:20:27;7.93;;;2.17;;
6947;SDS011;3513;47.664;9.162;2022-11-20T13:22:56;4.70;;;2.00;;
6947;SDS011;3513;47.664;9.162;2022-11-20T13:27:49;1.70;;;1.30;;
6947;SDS011;3513;47.664;9.162;2022-11-20T13:30:16;3.70;;;1.70;;
6947;SDS011;3513;47.664;9.162;2022-11-20T13:35:28;2.03;;;1.33;;
6947;SDS011;3513;47.664;9.162;2022-11-20T13:38:00;2.63;;;1.17;;
6947;SDS011;3513;47.664;9.162;2022-11-20T13:40:26;11.73;;;1.93;;
6947;SDS011;3513;47.664;9.162;2022-11-20T13:42:55;2.50;;;1.33;;
6947;SDS011;3513;47.664;9.162;2022-11-20T13:45:41;6.40;;;1.80;;
6947;SDS011;3513;47.664;9.162;2022-11-20T13:48:22;2.30;;;1.67;;
6947;SDS011;3513;47.664;9.162;2022-11-20T13:54:43;4.07;;;1.67;;
6947;SDS011;3513;47.664;9.162;2022-11-20T13:57:36;7.40;;;1.60;;
6947;SDS011;3513;47.664;9.162;2022-11-20T14:00:20;12.00;;;3.53;;
6947;SDS011;3513;47.664;9.162;2022-11-20T14:03:30;2.20;;;1.77;;
6947;SDS011;3513;47.664;9.162;2022-11-20T14:05:57;2.23;;;1.37;;
6947;SDS011;3513;47.664;9.162;2022-11-20T14:08:32;7.37;;;1.40;;
6947;SDS011;3513;47.664;9.162;2022-11-20T14:11:05;1.60;;;1.20;;
6947;SDS011;3513;47.664;9.162;2022-11-20T14:13:38;6.43;;;1.37;;
6947;SDS011;3513;47.664;9.162;2022-11-20T14:16:04;2.07;;;1.00;;
6947;SDS011;3513;47.664;9.162;2022-11-20T14:18:29;2.87;;;1.23;;
6947;SDS011;3513;47.664;9.162;2022-11-20T14:20:55;3.43;;;1.23;;
6947;SDS011;3513;47.664;9.162;2022-11-20T14:23:25;5.10;;;2.00;;
6947;SDS011;3513;47.664;9.162;2022-11-20T14:25:52;3.50;;;1.40;;
6947;SDS011;3513;47.664;9.162;2022-11-20T14:28:29;2.33;;;1.40;;
6947;SDS011;3513;47.664;9.162;2022-11-20T14:30:56;1.77;;;1.43;;
6947;SDS011;3513;47.664;9.162;2022-11-20T14:33:23;1.80;;;1.27;;
6947;SDS011;3513;47.664;9.162;2022-11-20T14:35:54;3.93;;;1.17;;
6947;SDS011;3513;47.664;9.162;2022-11-20T14:38:26;1.77;;;1.10;;
6947;SDS011;3513;47.664;9.162;2022-11-20T14:40:53;4.07;;;1.40;;
6947;SDS011;3513;47.664;9.162;2022-11-20T14:43:26;5.20;;;2.40;;
6947;SDS011;3513;47.664;9.162;2022-11-20T14:45:59;2.97;;;1.53;;
6947;SDS011;3513;47.664;9.162;2022-11-20T14:48:31;6.27;;;2.50;;
6947;SDS011;3513;47.664;9.162;2022-11-20T14:51:01;9.40;;;1.67;;
6947;SDS011;3513;47.664;9.162;2022-11-20T14:53:27;7.83;;;1.60;;
6947;SDS011;3513;47.664;9.162;2022-11-20T14:56:00;2.27;;;1.10;;
6947;SDS011;3513;47.664;9.162;2022-11-20T14:58:28;4.50;;;1.80;;
6947;SDS011;3513;47.664;9.162;2022-11-20T15:01:03;5.77;;;1.40;;
6947;SDS011;3513;47.664;9.162;2022-11-20T15:03:32;6.37;;;1.50;;
6947;SDS011;3513;47.664;9.162;2022-11-20T15:06:02;13.50;;;4.27;;
6947;SDS011;3513;47.664;9.162;2022-11-20T15:08:28;5.90;;;2.83;;
6947;SDS011;3513;47.664;9.162;2022-11-20T15:10:54;8.07;;;3.07;;
6947;SDS011;3513;47.664;9.162;2022-11-20T15:13:31;2.80;;;1.67;;
6947;SDS011;3513;47.664;9.162;2022-11-20T15:16:00;4.77;;;2.07;;
6947;SDS011;3513;47.664;9.162;2022-11-20T15:20:54;1.83;;;1.60;;
6947;SDS011;3513;47.664;9.162;2022-11-20T15:23:21;2.37;;;1.17;;
6947;SDS011;3513;47.664;9.162;2022-11-20T15:25:47;3.37;;;1.30;;
6947;SDS011;3513;47.664;9.162;2022-11-20T15:28:18;2.63;;;1.30;;
6947;SDS011;3513;47.664;9.162;2022-11-20T15:30:46;2.60;;;1.33;;
6947;SDS011;3513;47.664;9.162;2022-11-20T15:33:13;3.20;;;1.30;;
6947;SDS011;3513;47.664;9.162;2022-11-20T15:35:39;3.00;;;1.83;;
6947;SDS011;3513;47.664;9.162;2022-11-20T15:38:05;4.63;;;2.07;;
6947;SDS011;3513;47.664;9.162;2022-11-20T15:40:31;7.70;;;2.83;;
6947;SDS011;3513;47.664;9.162;2022-11-20T15:42:56;43.83;;;16.00;;
6947;SDS011;3513;47.664;9.162;2022-11-20T15:45:29;27.97;;;10.53;;
6947;SDS011;3513;47.664;9.162;2022-11-20T15:47:59;16.23;;;7.23;;
6947;SDS011;3513;47.664;9.162;2022-11-20T15:50:27;13.50;;;5.47;;
6947;SDS011;3513;47.664;9.162;2022-11-20T15:53:02;31.90;;;12.13;;
6947;SDS011;3513;47.664;9.162;2022-11-20T15:55:29;25.03;;;8.10;;
6947;SDS011;3513;47.664;9.162;2022-11-20T15:57:55;23.20;;;8.97;;
6947;SDS011;3513;47.664;9.162;2022-11-20T16:00:21;32.43;;;12.33;;
6947;SDS011;3513;47.664;9.162;2022-11-20T16:02:46;41.67;;;15.40;;
6947;SDS011;3513;47.664;9.162;2022-11-20T16:05:12;38.00;;;12.80;;
6947;SDS011;3513;47.664;9.162;2022-11-20T16:07:39;50.57;;;17.53;;
6947;SDS011;3513;47.664;9.162;2022-11-20T16:10:05;105.37;;;30.77;;
6947;SDS011;3513;47.664;9.162;2022-11-20T16:12:31;31.17;;;10.40;;
6947;SDS011;3513;47.664;9.162;2022-11-20T16:15:15;15.23;;;7.73;;
6947;SDS011;3513;47.664;9.162;2022-11-20T16:17:59;16.47;;;5.83;;
6947;SDS011;3513;47.664;9.162;2022-11-20T16:20:25;12.70;;;5.07;;
6947;SDS011;3513;47.664;9.162;2022-11-20T16:22:50;15.23;;;5.60;;
6947;SDS011;3513;47.664;9.162;2022-11-20T16:25:16;7.20;;;4.63;;
6947;SDS011;3513;47.664;9.162;2022-11-20T16:27:41;14.70;;;6.60;;
6947;SDS011;3513;47.664;9.162;2022-11-20T16:30:07;27.80;;;5.83;;
6947;SDS011;3513;47.664;9.162;2022-11-20T16:32:33;11.77;;;5.23;;
6947;SDS011;3513;47.664;9.162;2022-11-20T16:34:59;8.40;;;5.63;;
6947;SDS011;3513;47.664;9.162;2022-11-20T16:37:25;15.00;;;5.77;;
6947;SDS011;3513;47.664;9.162;2022-11-20T16:39:50;14.30;;;7.20;;
6947;SDS011;3513;47.664;9.162;2022-11-20T16:42:16;22.33;;;12.07;;
6947;SDS011;3513;47.664;9.162;2022-11-20T16:44:41;17.10;;;9.07;;
6947;SDS011;3513;47.664;9.162;2022-11-20T16:47:10;15.90;;;6.83;;
6947;SDS011;3513;47.664;9.162;2022-11-20T16:49:36;12.50;;;5.93;;
6947;SDS011;3513;47.664;9.162;2022-11-20T16:52:01;6.30;;;4.53;;
6947;SDS011;3513;47.664;9.162;2022-11-20T16:54:27;6.90;;;4.70;;
6947;SDS011;3513;47.664;9.162;2022-11-20T16:56:52;16.63;;;4.70;;
6947;SDS011;3513;47.664;9.162;2022-11-20T16:59:18;9.90;;;4.70;;
6947;SDS011;3513;47.664;9.162;2022-11-20T17:01:44;13.10;;;5.30;;
6947;SDS011;3513;47.664;9.162;2022-11-20T17:04:09;8.60;;;4.70;;
6947;SDS011;3513;47.664;9.162;2022-11-20T17:06:36;11.33;;;4.77;;
6947;SDS011;3513;47.664;9.162;2022-11-20T17:09:04;9.73;;;4.50;;
6947;SDS011;3513;47.664;9.162;2022-11-20T17:11:35;11.83;;;5.17;;
6947;SDS011;3513;47.664;9.162;2022-11-20T17:14:01;15.30;;;5.80;;
6947;SDS011;3513;47.664;9.162;2022-11-20T17:16:28;7.67;;;5.30;;
6947;SDS011;3513;47.664;9.162;2022-11-20T17:18:55;14.50;;;6.90;;
6947;SDS011;3513;47.664;9.162;2022-11-20T17:21:22;11.37;;;4.73;;
6947;SDS011;3513;47.664;9.162;2022-11-20T17:23:48;17.60;;;6.70;;